createdAt,value
2023-04-27T00:01:41.700Z,14.50
2023-04-27T00:04:08.411Z,14.50
2023-04-27T00:06:35.061Z,14.50
2023-04-27T00:09:01.556Z,14.50
2023-04-27T00:11:28.041Z,14.40
2023-04-27T00:13:54.498Z,14.40
2023-04-27T00:16:21.056Z,14.40
2023-04-27T00:18:47.599Z,14.40
2023-04-27T00:21:14.055Z,14.40
2023-04-27T00:23:40.534Z,14.40
2023-04-27T00:26:07.019Z,14.40
2023-04-27T00:28:33.492Z,14.40
2023-04-27T00:30:59.960Z,14.40
2023-04-27T00:33:26.429Z,14.40
2023-04-27T00:35:52.911Z,14.40
2023-04-27T00:38:19.404Z,14.40
2023-04-27T00:40:45.883Z,14.50
2023-04-27T00:43:12.364Z,14.40
2023-04-27T00:45:38.892Z,14.40
2023-04-27T00:48:05.401Z,14.50
2023-04-27T00:50:31.906Z,14.40
2023-04-27T00:52:58.381Z,14.40
2023-04-27T00:55:24.864Z,14.50
2023-04-27T00:57:51.346Z,14.40
2023-04-27T01:00:17.840Z,14.40
2023-04-27T01:02:44.466Z,14.40
2023-04-27T01:05:11.094Z,14.40
2023-04-27T01:07:37.568Z,14.40
2023-04-27T01:10:04.024Z,14.40
2023-04-27T01:12:30.495Z,14.50
2023-04-27T01:14:56.971Z,14.40
2023-04-27T01:17:23.499Z,14.40
2023-04-27T01:19:49.982Z,14.30
2023-04-27T01:22:16.467Z,14.40
2023-04-27T01:24:42.916Z,14.40
2023-04-27T01:27:09.424Z,14.40
2023-04-27T01:29:35.885Z,14.40
2023-04-27T01:32:02.380Z,14.40
2023-04-27T01:34:28.855Z,14.40
2023-04-27T01:36:55.326Z,14.50
2023-04-27T01:39:21.802Z,14.40
2023-04-27T01:41:48.263Z,14.40
2023-04-27T01:44:14.762Z,14.50
2023-04-27T01:46:41.436Z,14.50
2023-04-27T01:49:08.103Z,14.50
2023-04-27T01:51:34.591Z,14.50
2023-04-27T01:54:01.077Z,14.40
2023-04-27T01:56:27.661Z,14.40
2023-04-27T01:58:54.142Z,14.40
2023-04-27T02:01:20.637Z,14.40
2023-04-27T02:03:47.316Z,14.40
2023-04-27T02:06:13.937Z,14.50
2023-04-27T02:08:40.405Z,14.50
2023-04-27T02:11:06.862Z,14.40
2023-04-27T02:13:33.366Z,14.40
2023-04-27T02:15:59.874Z,14.40
2023-04-27T02:18:26.365Z,14.40
2023-04-27T02:20:52.848Z,14.40
2023-04-27T02:23:19.335Z,14.40
2023-04-27T02:25:45.802Z,14.50
2023-04-27T02:28:12.276Z,14.50
2023-04-27T02:30:39.081Z,14.40
2023-04-27T02:33:05.576Z,14.40
2023-04-27T02:35:37.864Z,14.40
2023-04-27T02:38:04.336Z,14.40
2023-04-27T02:40:30.808Z,14.40
2023-04-27T02:42:57.272Z,14.40
2023-04-27T02:45:23.753Z,14.40
2023-04-27T02:47:50.263Z,14.40
2023-04-27T02:50:19.859Z,14.40
2023-04-27T02:52:46.338Z,14.40
2023-04-27T02:55:12.790Z,14.40
2023-04-27T02:57:39.257Z,14.40
2023-04-27T03:00:05.765Z,14.30
2023-04-27T03:02:32.377Z,14.30
2023-04-27T03:04:59.002Z,14.30
2023-04-27T03:07:25.480Z,14.30
2023-04-27T03:09:51.981Z,14.30
2023-04-27T03:12:18.602Z,14.20
2023-04-27T03:14:45.140Z,14.20
2023-04-27T03:17:11.623Z,14.20
2023-04-27T03:19:38.092Z,14.40
2023-04-27T03:22:04.570Z,14.30
2023-04-27T03:24:31.076Z,14.30
2023-04-27T03:26:57.559Z,14.30
2023-04-27T03:29:24.056Z,14.30
2023-04-27T03:31:50.600Z,14.30
2023-04-27T03:34:17.133Z,14.30
2023-04-27T03:36:43.591Z,14.40
2023-04-27T03:39:10.089Z,14.40
2023-04-27T03:41:36.573Z,14.40
2023-04-27T03:44:03.032Z,14.40
2023-04-27T03:46:29.569Z,14.30
2023-04-27T03:48:56.092Z,14.30
2023-04-27T03:51:22.550Z,14.30
2023-04-27T03:53:49.024Z,14.30
2023-04-27T03:56:15.509Z,14.30
2023-04-27T03:58:42.021Z,14.30
2023-04-27T04:01:08.486Z,14.30
2023-04-27T04:03:35.072Z,14.30
2023-04-27T04:06:01.683Z,14.30
2023-04-27T04:08:28.152Z,14.30
2023-04-27T04:10:54.629Z,14.20
2023-04-27T04:13:21.106Z,14.30
2023-04-27T04:15:47.621Z,14.20
2023-04-27T04:18:14.113Z,14.20
2023-04-27T04:20:40.590Z,14.20
2023-04-27T04:23:07.065Z,14.20
2023-04-27T04:25:33.528Z,14.30
2023-04-27T04:27:59.999Z,14.20
2023-04-27T04:30:26.500Z,14.20
2023-04-27T04:32:53.086Z,14.20
2023-04-27T04:35:19.673Z,14.30
2023-04-27T04:37:46.160Z,14.30
2023-04-27T04:40:12.611Z,14.30
2023-04-27T04:42:39.075Z,14.20
2023-04-27T04:45:05.567Z,14.30
2023-04-27T04:47:32.049Z,14.30
2023-04-27T04:49:58.555Z,14.20
2023-04-27T04:52:25.018Z,14.30
2023-04-27T04:54:51.497Z,14.50
2023-04-27T04:57:17.975Z,14.60
2023-04-27T04:59:44.453Z,14.60
2023-04-27T05:02:10.908Z,14.60
2023-04-27T05:04:37.596Z,14.60
2023-04-27T05:07:04.206Z,14.60
2023-04-27T05:09:30.706Z,14.70
2023-04-27T05:11:57.210Z,14.60
2023-04-27T05:14:23.686Z,14.60
2023-04-27T05:16:50.157Z,14.60
2023-04-27T05:19:16.630Z,14.60
2023-04-27T05:21:43.098Z,14.50
2023-04-27T05:24:09.570Z,14.60
2023-04-27T05:26:36.059Z,14.50
2023-04-27T05:29:02.535Z,14.50
2023-04-27T05:31:29.070Z,14.40
2023-04-27T05:33:55.578Z,14.50
2023-04-27T05:36:26.025Z,14.30
2023-04-27T05:38:52.519Z,14.40
2023-04-27T05:41:19.042Z,14.30
2023-04-27T05:43:45.528Z,14.30
2023-04-27T05:46:14.042Z,14.20
2023-04-27T05:48:40.522Z,14.20
2023-04-27T05:51:07.001Z,14.20
2023-04-27T05:53:33.469Z,14.30
2023-04-27T05:55:59.952Z,14.40
2023-04-27T05:58:26.429Z,14.40
2023-04-27T06:00:52.921Z,14.40
2023-04-27T06:03:19.618Z,14.30
2023-04-27T06:05:46.307Z,14.30
2023-04-27T06:08:12.793Z,14.40
2023-04-27T06:10:39.266Z,14.30
2023-04-27T06:13:05.747Z,14.40
2023-04-27T06:15:32.224Z,14.40
2023-04-27T06:17:58.747Z,14.40
2023-04-27T06:20:25.279Z,14.40
2023-04-27T06:22:51.764Z,14.40
2023-04-27T06:25:18.279Z,14.40
2023-04-27T06:27:44.753Z,14.30
2023-04-27T06:30:11.217Z,14.30
2023-04-27T06:32:37.712Z,14.30
2023-04-27T06:35:04.223Z,14.20
2023-04-27T06:37:30.703Z,14.20
2023-04-27T06:39:57.183Z,14.20
2023-04-27T06:42:23.654Z,14.30
2023-04-27T06:44:50.134Z,14.20
2023-04-27T06:47:16.604Z,14.20
2023-04-27T06:49:43.067Z,14.30
2023-04-27T06:52:09.538Z,14.20
2023-04-27T06:54:36.003Z,14.20
2023-04-27T06:57:02.472Z,14.20
2023-04-27T06:59:28.962Z,14.30
2023-04-27T07:01:55.534Z,14.30
2023-04-27T07:04:26.394Z,14.20
2023-04-27T07:06:53.021Z,14.20
2023-04-27T07:09:26.949Z,14.30
2023-04-27T07:11:54.227Z,14.20
2023-04-27T07:14:20.777Z,14.20
2023-04-27T07:16:47.275Z,14.20
2023-04-27T07:19:14.022Z,14.20
2023-04-27T07:21:40.685Z,14.20
2023-04-27T07:24:07.159Z,14.20
2023-04-27T07:26:33.694Z,14.30
2023-04-27T07:29:00.324Z,14.30
2023-04-27T07:31:28.183Z,14.30
2023-04-27T07:33:54.681Z,14.20
2023-04-27T07:36:21.162Z,14.10
2023-04-27T07:38:47.615Z,14.20
2023-04-27T07:41:14.076Z,14.30
2023-04-27T07:43:40.548Z,14.30
2023-04-27T07:46:07.062Z,14.30
2023-04-27T07:48:33.543Z,14.20
2023-04-27T07:51:00.017Z,14.20
2023-04-27T07:53:26.493Z,14.30
2023-04-27T07:55:52.992Z,14.30
2023-04-27T07:58:19.476Z,14.30
2023-04-27T08:00:45.981Z,14.30
2023-04-27T08:03:12.808Z,14.20
2023-04-27T08:05:39.602Z,14.20
2023-04-27T08:08:07.069Z,14.20
2023-04-27T08:10:33.728Z,14.30
2023-04-27T08:13:00.214Z,14.30
2023-04-27T08:15:26.690Z,14.20
2023-04-27T08:17:53.184Z,14.20
2023-04-27T08:20:19.871Z,14.20
2023-04-27T08:22:46.346Z,14.30
2023-04-27T08:25:12.843Z,14.30
2023-04-27T08:27:39.325Z,14.30
2023-04-27T08:30:05.796Z,14.30
2023-04-27T08:32:32.313Z,14.40
2023-04-27T08:34:58.793Z,14.40
2023-04-27T08:37:25.290Z,14.40
2023-04-27T08:39:51.761Z,14.40
2023-04-27T08:42:18.238Z,14.30
2023-04-27T08:44:44.679Z,14.30
2023-04-27T08:47:11.139Z,14.30
2023-04-27T08:49:37.626Z,14.40
2023-04-27T08:52:04.094Z,14.40
2023-04-27T08:54:30.562Z,14.30
2023-04-27T08:56:57.036Z,14.40
2023-04-27T09:02:13.978Z,14.40
2023-04-27T09:04:40.576Z,14.40
2023-04-27T09:07:07.228Z,14.40
2023-04-27T09:09:33.709Z,14.40
2023-04-27T09:12:00.207Z,14.50
2023-04-27T09:14:26.733Z,14.50
2023-04-27T09:16:53.365Z,14.50
2023-04-27T09:19:19.938Z,14.50
2023-04-27T09:21:47.657Z,14.50
2023-04-27T09:24:14.269Z,14.50
2023-04-27T09:26:40.752Z,14.50
2023-04-27T09:29:07.237Z,14.50
2023-04-27T09:31:33.777Z,14.60
2023-04-27T09:34:00.308Z,14.60
2023-04-27T09:36:26.774Z,14.50
2023-04-27T09:38:53.247Z,14.50
2023-04-27T09:41:19.736Z,14.60
2023-04-27T09:43:46.213Z,14.60
2023-04-27T09:46:12.710Z,14.50
2023-04-27T09:48:39.239Z,14.50
2023-04-27T09:51:05.713Z,14.60
2023-04-27T09:53:32.227Z,14.50
2023-04-27T09:55:58.684Z,14.50
2023-04-27T09:58:25.149Z,14.60
2023-04-27T10:00:51.669Z,14.50
2023-04-27T10:03:18.228Z,14.60
2023-04-27T10:05:44.699Z,14.60
2023-04-27T10:08:11.199Z,14.70
2023-04-27T10:10:37.656Z,14.70
2023-04-27T10:13:04.161Z,14.60
2023-04-27T10:15:30.673Z,14.70
2023-04-27T10:17:57.219Z,14.70
2023-04-27T10:20:23.741Z,14.70
2023-04-27T10:22:50.307Z,14.60
2023-04-27T10:25:20.245Z,14.70
2023-04-27T10:27:46.728Z,14.70
2023-04-27T10:30:13.200Z,14.60
2023-04-27T10:32:39.700Z,14.60
2023-04-27T10:35:06.186Z,14.70
2023-04-27T10:37:32.665Z,14.70
2023-04-27T10:40:00.256Z,14.70
2023-04-27T10:42:26.726Z,14.70
2023-04-27T10:44:53.241Z,14.70
2023-04-27T10:47:19.743Z,14.70
2023-04-27T10:49:46.214Z,14.70
2023-04-27T10:52:12.688Z,14.60
2023-04-27T10:54:39.157Z,14.60
2023-04-27T10:57:05.620Z,14.60
2023-04-27T10:59:32.097Z,14.60
2023-04-27T11:01:58.652Z,14.70
2023-04-27T11:04:25.211Z,14.70
2023-04-27T11:06:51.679Z,14.70
2023-04-27T11:09:18.157Z,14.60
2023-04-27T11:11:44.633Z,14.60
2023-04-27T11:14:11.101Z,14.70
2023-04-27T11:16:37.832Z,14.70
2023-04-27T11:19:04.421Z,14.70
2023-04-27T11:21:30.917Z,14.70
2023-04-27T11:23:57.381Z,14.70
2023-04-27T11:26:23.868Z,14.70
2023-04-27T11:28:50.350Z,14.80
2023-04-27T11:31:16.878Z,14.90
2023-04-27T11:33:43.367Z,14.80
2023-04-27T11:36:09.834Z,14.70
2023-04-27T11:38:36.332Z,14.80
2023-04-27T11:41:02.826Z,14.70
2023-04-27T11:43:32.327Z,14.70
2023-04-27T11:45:58.822Z,14.70
2023-04-27T11:48:25.546Z,14.80
2023-04-27T11:50:52.063Z,14.70
2023-04-27T11:53:19.110Z,14.80
2023-04-27T11:55:45.630Z,14.80
2023-04-27T11:58:12.114Z,14.80
2023-04-27T12:00:38.583Z,14.70
2023-04-27T12:03:05.247Z,14.70
2023-04-27T12:05:32.131Z,14.80
2023-04-27T12:07:58.674Z,14.70
2023-04-27T12:10:25.153Z,14.80
2023-04-27T12:12:51.650Z,14.70
2023-04-27T12:15:18.150Z,14.70
2023-04-27T12:17:44.670Z,14.80
2023-04-27T12:20:11.179Z,14.70
2023-04-27T12:22:37.642Z,14.80
2023-04-27T12:25:04.125Z,14.70
2023-04-27T12:27:30.594Z,14.70
2023-04-27T12:29:57.075Z,14.80
2023-04-27T12:32:23.520Z,14.80
2023-04-27T12:34:49.991Z,14.90
2023-04-27T12:37:16.476Z,14.90
2023-04-27T12:39:42.935Z,14.90
2023-04-27T12:42:09.452Z,14.90
2023-04-27T12:44:35.932Z,15.00
2023-04-27T12:47:02.616Z,15.10
2023-04-27T12:49:29.118Z,15.10
2023-04-27T12:51:55.597Z,15.10
2023-04-27T12:54:22.071Z,15.00
2023-04-27T12:56:48.534Z,14.90
2023-04-27T12:59:15.014Z,15.00
2023-04-27T13:01:41.486Z,15.00
2023-04-27T13:04:08.149Z,15.00
2023-04-27T13:06:34.774Z,15.00
2023-04-27T13:09:01.261Z,15.00
2023-04-27T13:11:27.774Z,15.00
2023-04-27T13:13:54.274Z,14.80
2023-04-27T13:16:20.838Z,14.80
2023-04-27T13:18:47.367Z,14.80
2023-04-27T13:21:13.864Z,15.00
2023-04-27T13:23:40.356Z,15.00
2023-04-27T13:26:06.881Z,15.00
2023-04-27T13:28:33.398Z,15.00
2023-04-27T13:31:00.490Z,15.00
2023-04-27T13:33:27.179Z,15.00
2023-04-27T13:35:53.746Z,15.00
2023-04-27T13:38:20.271Z,14.90
2023-04-27T13:40:46.702Z,15.00
2023-04-27T13:43:13.187Z,15.00
2023-04-27T13:45:39.690Z,15.00
2023-04-27T13:48:06.279Z,15.10
2023-04-27T13:50:32.882Z,15.10
2023-04-27T13:52:59.362Z,15.10
2023-04-27T13:55:25.833Z,15.10
2023-04-27T13:57:52.312Z,15.10
2023-04-27T14:00:18.978Z,15.10
2023-04-27T14:02:45.544Z,15.10
2023-04-27T14:05:12.088Z,15.00
2023-04-27T14:07:38.588Z,15.10
2023-04-27T14:10:05.049Z,15.20
2023-04-27T14:12:31.529Z,15.20
2023-04-27T14:14:58.544Z,15.20
2023-04-27T14:17:25.084Z,15.10
2023-04-27T14:19:51.548Z,15.10
2023-04-27T14:22:18.026Z,15.20
2023-04-27T14:24:44.495Z,15.10
2023-04-27T14:27:10.972Z,15.20
2023-04-27T14:29:37.440Z,15.20
2023-04-27T14:32:03.941Z,15.30
2023-04-27T14:34:30.470Z,15.20
2023-04-27T14:36:56.944Z,15.20
2023-04-27T14:39:23.423Z,15.30
2023-04-27T14:41:49.901Z,15.30
2023-04-27T14:44:16.432Z,15.30
2023-04-27T14:46:42.930Z,15.30
2023-04-27T14:49:09.405Z,15.20
2023-04-27T14:51:36.060Z,15.20
2023-04-27T14:54:08.487Z,15.10
2023-04-27T14:56:34.966Z,15.20
2023-04-27T14:59:01.452Z,15.20
2023-04-27T15:01:28.021Z,15.30
2023-04-27T15:03:54.621Z,15.30
2023-04-27T15:06:21.239Z,15.40
2023-04-27T15:08:47.696Z,15.30
2023-04-27T15:11:14.170Z,15.40
2023-04-27T15:13:40.646Z,15.40
2023-04-27T15:16:07.191Z,15.40
2023-04-27T15:18:33.787Z,15.40
2023-04-27T15:21:00.265Z,15.40
2023-04-27T15:23:26.748Z,15.40
2023-04-27T15:25:53.217Z,15.40
2023-04-27T15:28:19.679Z,15.40
2023-04-27T15:30:46.153Z,15.40
2023-04-27T15:33:12.655Z,15.40
2023-04-27T15:35:39.151Z,15.30
2023-04-27T15:38:05.626Z,15.40
2023-04-27T15:40:32.114Z,15.40
2023-04-27T15:42:58.602Z,15.40
2023-04-27T15:45:25.091Z,15.40
2023-04-27T15:47:51.611Z,15.30
2023-04-27T15:50:18.161Z,15.30
2023-04-27T15:52:44.675Z,15.30
2023-04-27T15:55:11.150Z,15.30
2023-04-27T15:57:37.644Z,15.30
2023-04-27T16:00:04.188Z,15.40
2023-04-27T16:02:30.863Z,15.40
2023-04-27T16:04:57.346Z,15.40
2023-04-27T16:07:23.834Z,15.40
2023-04-27T16:09:50.307Z,15.30
2023-04-27T16:12:16.817Z,15.30
2023-04-27T16:14:43.277Z,15.30
2023-04-27T16:17:09.748Z,15.30
2023-04-27T16:19:36.220Z,15.30
2023-04-27T16:22:02.706Z,15.30
2023-04-27T16:24:29.197Z,15.30
2023-04-27T16:26:55.665Z,15.30
2023-04-27T16:29:22.119Z,15.20
2023-04-27T16:31:48.645Z,15.30
2023-04-27T16:34:15.147Z,15.30
2023-04-27T16:36:41.605Z,15.20
2023-04-27T16:39:08.075Z,15.20
2023-04-27T16:41:34.549Z,15.30
2023-04-27T16:44:01.038Z,15.20
2023-04-27T16:46:27.683Z,15.20
2023-04-27T16:48:54.202Z,15.10
2023-04-27T16:51:20.718Z,15.20
2023-04-27T16:53:47.195Z,15.20
2023-04-27T16:56:13.678Z,15.10
2023-04-27T16:58:40.169Z,15.10
2023-04-27T17:01:06.665Z,15.10
2023-04-27T17:03:33.268Z,15.10
2023-04-27T17:05:59.764Z,15.10
2023-04-27T17:08:26.251Z,15.10
2023-04-27T17:10:52.707Z,15.00
2023-04-27T17:13:19.189Z,15.10
2023-04-27T17:15:45.700Z,15.10
2023-04-27T17:18:12.187Z,15.10
2023-04-27T17:20:40.327Z,15.10
2023-04-27T17:23:08.666Z,15.10
2023-04-27T17:25:35.140Z,15.10
2023-04-27T17:28:01.839Z,15.10
2023-04-27T17:30:28.394Z,15.10
2023-04-27T17:32:54.912Z,15.10
2023-04-27T17:35:21.432Z,15.00
2023-04-27T17:37:47.909Z,15.00
2023-04-27T17:40:14.381Z,15.00
2023-04-27T17:42:40.874Z,15.00
2023-04-27T17:45:07.381Z,15.00
2023-04-27T17:47:33.859Z,15.00
2023-04-27T17:50:00.352Z,15.00
2023-04-27T17:52:26.838Z,15.00
2023-04-27T17:54:53.314Z,14.90
2023-04-27T17:57:19.762Z,15.00
2023-04-27T17:59:46.261Z,15.00
2023-04-27T18:02:12.778Z,15.00
2023-04-27T18:04:39.343Z,15.00
2023-04-27T18:07:05.826Z,14.90
2023-04-27T18:09:32.980Z,14.90
2023-04-27T18:11:59.647Z,14.90
2023-04-27T18:14:26.141Z,14.80
2023-04-27T18:16:52.640Z,14.90
2023-04-27T18:19:19.211Z,14.90
2023-04-27T18:21:45.680Z,14.90
2023-04-27T18:24:12.267Z,14.80
2023-04-27T18:26:38.787Z,14.90
2023-04-27T18:29:05.311Z,14.80
2023-04-27T18:31:31.809Z,14.90
2023-04-27T18:33:58.317Z,14.90
2023-04-27T18:36:24.797Z,14.90
2023-04-27T18:38:51.321Z,14.80
2023-04-27T18:41:17.810Z,14.80
2023-04-27T18:43:44.320Z,14.80
2023-04-27T18:46:10.902Z,14.90
2023-04-27T18:48:37.460Z,14.90
2023-04-27T18:51:03.937Z,14.90
2023-04-27T18:53:30.462Z,14.90
2023-04-27T18:55:56.941Z,15.00
2023-04-27T18:58:23.440Z,14.90
2023-04-27T19:00:50.049Z,14.90
2023-04-27T19:03:16.678Z,14.90
2023-04-27T19:05:43.334Z,14.90
2023-04-27T19:08:09.867Z,14.80
2023-04-27T19:10:36.347Z,14.80
2023-04-27T19:13:02.838Z,14.80
2023-04-27T19:15:29.314Z,14.80
2023-04-27T19:18:02.694Z,14.80
2023-04-27T19:20:36.789Z,14.90
2023-04-27T19:23:03.315Z,14.80
2023-04-27T19:25:29.826Z,14.80
2023-04-27T19:27:56.410Z,14.90
2023-04-27T19:30:22.954Z,14.90
2023-04-27T19:32:49.485Z,14.90
2023-04-27T19:35:16.071Z,14.90
2023-04-27T19:37:42.551Z,14.80
2023-04-27T19:40:09.011Z,14.80
2023-04-27T19:42:35.463Z,14.80
2023-04-27T19:45:01.932Z,14.80
2023-04-27T19:47:28.426Z,14.80
2023-04-27T19:49:56.729Z,14.80
2023-04-27T19:52:26.745Z,14.80
2023-04-27T19:54:53.261Z,14.80
2023-04-27T19:57:19.742Z,14.80
2023-04-27T19:59:46.220Z,14.80
2023-04-27T20:02:12.771Z,14.80
2023-04-27T20:04:39.642Z,14.70
2023-04-27T20:07:06.239Z,14.80
2023-04-27T20:09:32.755Z,14.70
2023-04-27T20:11:59.244Z,14.70
2023-04-27T20:14:25.730Z,14.80
2023-04-27T20:16:52.206Z,14.80
2023-04-27T20:19:18.699Z,14.70
2023-04-27T20:21:45.182Z,14.80
2023-04-27T20:24:11.650Z,14.70
2023-04-27T20:26:38.153Z,14.70
2023-04-27T20:29:04.636Z,14.80
2023-04-27T20:31:31.163Z,14.80
2023-04-27T20:33:57.655Z,14.70
2023-04-27T20:36:26.754Z,14.70
2023-04-27T20:38:53.236Z,14.60
2023-04-27T20:41:19.739Z,14.70
2023-04-27T20:43:46.289Z,14.80
2023-04-27T20:46:12.968Z,14.70
2023-04-27T20:48:39.593Z,14.70
2023-04-27T20:51:06.078Z,14.70
2023-04-27T20:53:32.561Z,14.80
2023-04-27T20:55:59.051Z,14.70
2023-04-27T20:58:25.536Z,14.70
2023-04-27T21:00:52.104Z,14.70
2023-04-27T21:03:18.815Z,14.70
2023-04-27T21:05:45.428Z,14.70
2023-04-27T21:08:11.935Z,14.70
2023-04-27T21:10:38.436Z,14.70
2023-04-27T21:13:04.894Z,14.70
2023-04-27T21:15:31.399Z,14.70
2023-04-27T21:17:57.946Z,14.70
2023-04-27T21:20:24.458Z,14.70
2023-04-27T21:22:50.939Z,14.70
2023-04-27T21:25:17.456Z,14.70
2023-04-27T21:27:43.969Z,14.70
2023-04-27T21:30:10.429Z,14.70
2023-04-27T21:32:36.959Z,14.60
2023-04-27T21:35:03.484Z,14.70
2023-04-27T21:37:29.953Z,14.60
2023-04-27T21:39:56.458Z,14.60
2023-04-27T21:42:22.966Z,14.60
2023-04-27T21:44:49.457Z,14.70
2023-04-27T21:47:15.938Z,14.70
2023-04-27T21:49:42.414Z,14.70
2023-04-27T21:52:08.888Z,14.70
2023-04-27T21:54:35.374Z,14.70
2023-04-27T21:57:01.857Z,14.70
2023-04-27T21:59:28.317Z,14.70
2023-04-27T22:01:54.821Z,14.70
2023-04-27T22:04:21.715Z,14.70
2023-04-27T22:06:48.627Z,14.70
2023-04-27T22:09:15.180Z,14.60
2023-04-27T22:11:41.714Z,14.70
2023-04-27T22:14:08.191Z,14.70
2023-04-27T22:16:34.796Z,14.70
2023-04-27T22:19:01.460Z,14.70
2023-04-27T22:21:27.969Z,14.70
2023-04-27T22:23:54.452Z,14.70
2023-04-27T22:26:20.971Z,14.70
2023-04-27T22:28:47.462Z,14.70
2023-04-27T22:31:13.976Z,14.70
2023-04-27T22:33:40.495Z,14.70
2023-04-27T22:36:06.961Z,14.60
2023-04-27T22:38:33.440Z,14.70
2023-04-27T22:40:59.923Z,14.70
2023-04-27T22:43:26.410Z,14.70
2023-04-27T22:45:52.903Z,14.70
2023-04-27T22:48:19.376Z,14.70
2023-04-27T22:50:45.852Z,14.70
2023-04-27T22:53:12.331Z,14.70
2023-04-27T22:55:38.798Z,14.70
2023-04-27T22:58:05.277Z,14.70
2023-04-27T23:00:31.741Z,14.70
2023-04-27T23:02:58.347Z,14.70
2023-04-27T23:05:24.911Z,14.60
2023-04-27T23:07:51.407Z,14.60
2023-04-27T23:10:17.880Z,14.70
2023-04-27T23:12:44.393Z,14.70
2023-04-27T23:15:10.855Z,14.70
2023-04-27T23:17:37.403Z,14.70
2023-04-27T23:20:04.145Z,14.60
2023-04-27T23:22:31.903Z,14.60
2023-04-27T23:24:58.364Z,14.60
2023-04-27T23:27:25.084Z,14.60
2023-04-27T23:29:51.719Z,14.60
2023-04-27T23:32:18.211Z,14.70
2023-04-27T23:34:44.667Z,14.70
2023-04-27T23:37:11.189Z,14.60
2023-04-27T23:39:37.664Z,14.60
2023-04-27T23:42:04.139Z,14.60
2023-04-27T23:44:30.602Z,14.70
2023-04-27T23:46:57.097Z,14.70
2023-04-27T23:49:23.567Z,14.70
2023-04-27T23:51:50.056Z,14.70
2023-04-27T23:54:16.760Z,14.70
2023-04-27T23:56:43.367Z,14.60
2023-04-27T23:59:09.850Z,14.70
